Sky Manor (N40)
Pittstown, NJ
Field Elevation: 560
Lat: 40°33.95N  Long: 74°58.76W
CTAF/Unicom Freq: 122.9750
   
    
Weather Advisories
2018-01-24   09:18 Z
Altimeter 29.79" Hg
Wind 260° @ 14 KT
Gusts 21 KT
Visibility 10 SM
Ceiling FEW049
Temperature 4° C (39° F)
Dewpoint -16° C (3° F)
Relative Humidity 22%
Density Altitude --
Condensation Altitude 10,300 feet
Wind Chill: -1° C (30° F)
Wind and Runways
Indicated Runway = 25
Headwind = 14 kt
Crosswind = 2 kt
History
 
 
 
More Info
All DigiWx sites map
NOAA Forecast
 
Airport IQ 5010
(4N1) Greenwood Lake, NJ
(PN44) Upper Gwynedd Heliport
 
about DigiWx
 
FAA Disclaimer: The data displayed is for advisory purposes only and is not to be used for flight planning or operations. For official data, please call (not available) to hear the current automated AWOS voice message.
  METAR N40 240918Z AUTO 26014G21KT 10 SM FEW049 04/M16 A2979